createdAt,value
2023-03-11T00:00:19.536Z,24.83
2023-03-11T00:01:21.667Z,26.25
2023-03-11T00:02:24.193Z,29.25
2023-03-11T00:03:28.185Z,28.70
2023-03-11T00:04:30.460Z,29.48
2023-03-11T00:05:39.197Z,26.35
2023-03-11T00:06:41.470Z,26.65
2023-03-11T00:07:43.659Z,23.92
2023-03-11T00:08:45.711Z,27.35
2023-03-11T00:09:47.661Z,23.67
2023-03-11T00:10:53.589Z,25.70
2023-03-11T00:11:55.741Z,22.50
2023-03-11T00:13:01.688Z,26.88
2023-03-11T00:14:04.906Z,22.70
2023-03-11T00:15:07.540Z,22.48
2023-03-11T00:16:12.480Z,21.17
2023-03-11T00:17:15.700Z,26.35
2023-03-11T00:18:19.088Z,20.42
2023-03-11T00:19:21.551Z,25.02
2023-03-11T00:20:43.290Z,20.10
2023-03-11T00:21:45.314Z,21.58
2023-03-11T00:22:51.318Z,21.60
2023-03-11T00:23:53.866Z,27.45
2023-03-11T00:24:56.056Z,22.00
2023-03-11T00:26:01.336Z,22.38
2023-03-11T00:27:05.178Z,22.13
2023-03-11T00:28:07.754Z,22.90
2023-03-11T00:29:09.940Z,19.98
2023-03-11T00:30:13.341Z,23.88
2023-03-11T00:31:15.896Z,22.05
2023-03-11T00:32:17.923Z,21.38
2023-03-11T00:33:20.258Z,27.58
2023-03-11T00:34:22.323Z,25.70
2023-03-11T00:35:28.494Z,17.65
2023-03-11T00:36:34.069Z,21.55
2023-03-11T00:37:36.070Z,20.80
2023-03-11T00:38:38.169Z,20.13
2023-03-11T00:39:41.174Z,22.42
2023-03-11T00:40:45.067Z,19.35
2023-03-11T00:41:46.975Z,29.25
2023-03-11T00:42:49.091Z,23.02
2023-03-11T00:43:52.318Z,22.55
2023-03-11T00:44:54.422Z,25.90
2023-03-11T00:45:56.439Z,24.92
2023-03-11T00:46:58.659Z,25.55
2023-03-11T00:48:01.051Z,21.92
2023-03-11T00:49:03.759Z,26.83
2023-03-11T00:50:07.160Z,26.38
2023-03-11T00:51:13.756Z,25.77
2023-03-11T00:52:16.296Z,29.50
2023-03-11T00:53:19.843Z,32.45
2023-03-11T00:54:21.907Z,29.08
2023-03-11T00:55:27.171Z,33.03
2023-03-11T00:56:32.110Z,26.42
2023-03-11T00:57:34.074Z,27.40
2023-03-11T00:58:39.468Z,28.75
2023-03-11T00:59:42.870Z,30.90
2023-03-11T01:00:45.047Z,32.13
2023-03-11T01:01:48.804Z,29.08
2023-03-11T01:02:52.305Z,30.08
2023-03-11T01:03:54.368Z,35.58
2023-03-11T01:04:57.016Z,33.38
2023-03-11T01:05:59.246Z,38.35
2023-03-11T01:07:01.523Z,35.03
2023-03-11T01:08:06.768Z,31.98
2023-03-11T01:09:10.697Z,35.72
2023-03-11T01:10:13.727Z,38.63
2023-03-11T01:11:17.380Z,38.05
2023-03-11T01:12:20.966Z,39.47
2023-03-11T01:13:27.812Z,37.58
2023-03-11T01:14:30.767Z,33.85
2023-03-11T01:15:40.080Z,36.10
2023-03-11T01:16:42.714Z,38.50
2023-03-11T01:17:47.517Z,39.25
2023-03-11T01:18:49.618Z,38.90
2023-03-11T01:19:51.459Z,36.42
2023-03-11T01:20:54.442Z,40.35
2023-03-11T01:21:56.416Z,39.40
2023-03-11T01:22:58.480Z,35.35
2023-03-11T01:24:00.612Z,38.67
2023-03-11T01:25:03.020Z,36.53
2023-03-11T01:26:06.146Z,34.63
2023-03-11T01:27:08.454Z,36.50
2023-03-11T01:28:11.877Z,39.05
2023-03-11T01:29:15.326Z,39.72
2023-03-11T01:30:23.126Z,37.22
2023-03-11T01:31:25.689Z,35.72
2023-03-11T01:32:28.229Z,40.17
2023-03-11T01:33:31.133Z,34.95
2023-03-11T01:34:36.437Z,35.55
2023-03-11T01:35:40.176Z,37.47
2023-03-11T01:36:42.120Z,35.42
2023-03-11T01:37:45.683Z,40.30
2023-03-11T01:38:47.791Z,40.35
2023-03-11T01:39:51.206Z,34.88
2023-03-11T01:40:53.963Z,39.03
2023-03-11T01:41:56.399Z,40.05
2023-03-11T01:43:00.633Z,37.08
2023-03-11T01:44:05.369Z,37.95
2023-03-11T01:45:37.416Z,40.15
2023-03-11T01:46:52.076Z,36.95
2023-03-11T01:47:57.484Z,43.95
2023-03-11T01:49:01.694Z,41.25
2023-03-11T01:50:11.226Z,37.33
2023-03-11T01:51:16.465Z,40.38
2023-03-11T01:52:19.593Z,39.33
2023-03-11T01:53:25.987Z,39.78
2023-03-11T01:54:33.696Z,37.78
2023-03-11T01:55:36.428Z,37.47
2023-03-11T01:56:41.306Z,40.58
2023-03-11T01:57:46.504Z,38.00
2023-03-11T01:58:53.377Z,35.75
2023-03-11T01:59:58.790Z,35.75
2023-03-11T02:01:04.967Z,35.53
2023-03-11T02:02:27.282Z,36.00
2023-03-11T02:03:35.327Z,36.00
2023-03-11T02:04:38.115Z,36.92
2023-03-11T02:05:41.216Z,35.17
2023-03-11T02:06:45.488Z,33.90
2023-03-11T02:07:51.267Z,30.55
2023-03-11T02:08:56.658Z,36.40
2023-03-11T02:09:59.028Z,34.65
2023-03-11T02:11:04.174Z,37.40
2023-03-11T02:12:09.469Z,35.05
2023-03-11T02:13:12.439Z,37.95
2023-03-11T02:14:14.437Z,34.10
2023-03-11T02:15:17.579Z,33.83
2023-03-11T02:16:19.737Z,37.17
2023-03-11T02:17:22.503Z,35.70
2023-03-11T02:18:24.606Z,40.72
2023-03-11T02:20:12.648Z,38.90
2023-03-11T02:21:28.068Z,38.78
2023-03-11T02:22:33.727Z,35.80
2023-03-11T02:24:22.891Z,33.22
2023-03-11T02:25:36.291Z,36.80
2023-03-11T02:26:59.124Z,38.95
2023-03-11T02:28:04.888Z,36.97
2023-03-11T02:29:09.711Z,36.03
2023-03-11T02:30:14.088Z,39.85
2023-03-11T02:31:18.439Z,40.50
2023-03-11T02:32:21.484Z,36.30
2023-03-11T02:33:28.104Z,35.13
2023-03-11T02:34:34.408Z,37.58
2023-03-11T02:35:36.617Z,38.53
2023-03-11T02:36:41.901Z,39.30
2023-03-11T02:37:50.201Z,36.45
2023-03-11T02:38:52.790Z,41.92
2023-03-11T02:39:56.473Z,39.50
2023-03-11T02:41:02.092Z,33.42
2023-03-11T02:42:13.546Z,35.88
2023-03-11T02:43:20.246Z,34.70
2023-03-11T02:44:22.291Z,35.22
2023-03-11T02:45:26.912Z,35.60
2023-03-11T02:46:29.837Z,37.10
2023-03-11T02:47:34.032Z,37.70
2023-03-11T02:48:36.834Z,39.00
2023-03-11T02:49:39.309Z,37.00
2023-03-11T02:50:41.834Z,34.63
2023-03-11T02:51:44.463Z,41.47
2023-03-11T02:52:51.819Z,39.40
2023-03-11T02:53:59.808Z,34.35
2023-03-11T02:55:04.946Z,39.67
2023-03-11T02:56:08.001Z,36.10
2023-03-11T02:57:11.954Z,39.90
2023-03-11T02:58:15.416Z,37.70
2023-03-11T02:59:18.315Z,31.77
2023-03-11T03:00:21.367Z,37.53
2023-03-11T03:01:32.668Z,39.53
2023-03-11T03:02:36.025Z,35.45
2023-03-11T03:03:40.867Z,42.90
2023-03-11T03:04:44.650Z,36.72
2023-03-11T03:05:49.508Z,39.45
2023-03-11T03:06:51.851Z,45.22
2023-03-11T03:07:55.046Z,42.50
2023-03-11T03:09:00.381Z,49.30
2023-03-11T03:10:04.388Z,36.67
2023-03-11T03:11:06.864Z,39.13
2023-03-11T03:12:08.929Z,39.80
2023-03-11T03:13:12.313Z,41.03
2023-03-11T03:14:14.401Z,37.60
2023-03-11T03:15:16.707Z,43.45
2023-03-11T03:16:19.526Z,37.65
2023-03-11T03:17:22.957Z,33.45
2023-03-11T03:18:26.308Z,40.47
2023-03-11T03:19:28.264Z,37.40
2023-03-11T03:20:30.517Z,41.28
2023-03-11T03:21:35.865Z,39.00
2023-03-11T03:22:39.404Z,37.22
2023-03-11T03:23:43.374Z,42.78
2023-03-11T03:24:45.302Z,40.17
2023-03-11T03:25:47.444Z,44.08
2023-03-11T03:26:49.537Z,44.03
2023-03-11T03:27:52.358Z,40.20
2023-03-11T03:28:56.845Z,38.97
2023-03-11T03:29:59.922Z,43.13
2023-03-11T03:31:06.721Z,39.75
2023-03-11T03:32:08.862Z,43.67
2023-03-11T03:33:11.873Z,41.72
2023-03-11T03:34:15.553Z,44.58
2023-03-11T03:35:17.920Z,43.33
2023-03-11T03:36:40.197Z,43.13
2023-03-11T03:37:42.415Z,40.45
2023-03-11T03:38:44.958Z,45.50
2023-03-11T03:39:47.154Z,42.88
2023-03-11T03:40:49.098Z,42.20
2023-03-11T03:41:54.482Z,40.55
2023-03-11T03:42:58.776Z,41.72
2023-03-11T03:44:01.762Z,40.22
2023-03-11T03:45:08.273Z,44.05
2023-03-11T03:46:10.524Z,45.05
2023-03-11T03:47:21.063Z,38.08
2023-03-11T03:48:23.494Z,40.67
2023-03-11T03:49:25.661Z,35.00
2023-03-11T03:50:29.313Z,39.80
2023-03-11T03:51:32.297Z,42.15
2023-03-11T03:52:43.357Z,36.47
2023-03-11T03:53:47.143Z,41.30
2023-03-11T03:54:50.369Z,39.15
2023-03-11T03:55:54.698Z,41.25
2023-03-11T03:56:59.171Z,39.45
2023-03-11T03:58:01.180Z,40.55
2023-03-11T03:59:07.913Z,43.92
2023-03-11T04:00:19.664Z,43.63
2023-03-11T04:01:30.615Z,39.55
2023-03-11T04:02:39.236Z,43.40
2023-03-11T04:03:42.669Z,41.10
2023-03-11T04:04:48.490Z,39.78
2023-03-11T04:05:50.654Z,41.08
2023-03-11T04:06:52.756Z,39.08
2023-03-11T04:07:55.245Z,42.38
2023-03-11T04:08:57.953Z,38.47
2023-03-11T04:10:06.365Z,37.78
2023-03-11T04:11:09.648Z,39.05
2023-03-11T04:12:17.783Z,41.70
2023-03-11T04:13:21.453Z,41.38
2023-03-11T04:14:23.426Z,38.53
2023-03-11T04:15:30.383Z,41.58
2023-03-11T04:16:33.254Z,41.45
2023-03-11T04:17:40.033Z,40.78
2023-03-11T04:18:42.498Z,42.20
2023-03-11T04:19:45.169Z,45.65
2023-03-11T04:20:47.736Z,40.72
2023-03-11T04:21:52.043Z,42.33
2023-03-11T04:22:55.484Z,47.03
2023-03-11T04:24:00.420Z,42.75
2023-03-11T04:25:07.228Z,41.65
2023-03-11T04:26:09.494Z,40.90
2023-03-11T04:27:13.064Z,40.92
2023-03-11T04:28:16.149Z,43.80
2023-03-11T04:29:21.387Z,45.70
2023-03-11T04:30:27.098Z,41.17
2023-03-11T04:31:31.657Z,42.42
2023-03-11T04:32:36.854Z,41.28
2023-03-11T04:33:39.732Z,42.83
2023-03-11T04:34:44.490Z,41.92
2023-03-11T04:35:48.945Z,38.50
2023-03-11T04:36:54.282Z,43.22
2023-03-11T04:38:05.362Z,40.53
2023-03-11T04:39:07.993Z,38.47
2023-03-11T04:40:15.515Z,40.85
2023-03-11T04:41:17.815Z,42.72
2023-03-11T04:42:20.795Z,41.13
2023-03-11T04:43:23.679Z,39.13
2023-03-11T04:44:25.662Z,39.35
2023-03-11T04:45:27.711Z,38.92
2023-03-11T04:46:32.812Z,38.80
2023-03-11T04:47:36.133Z,38.00
2023-03-11T04:48:39.637Z,38.92
2023-03-11T04:49:42.690Z,35.92
2023-03-11T04:50:46.669Z,40.00
2023-03-11T04:51:49.943Z,40.45
2023-03-11T04:52:54.710Z,37.58
2023-03-11T04:53:58.216Z,39.42
2023-03-11T04:55:02.278Z,36.17
2023-03-11T04:56:05.791Z,40.30
2023-03-11T04:57:08.810Z,35.58
2023-03-11T04:58:11.822Z,37.90
2023-03-11T04:59:16.630Z,34.45
2023-03-11T05:00:25.187Z,35.72
2023-03-11T05:01:36.980Z,34.83
2023-03-11T05:02:41.317Z,34.88
2023-03-11T05:03:43.217Z,40.90
2023-03-11T05:04:46.469Z,31.75
2023-03-11T05:05:50.520Z,31.40
2023-03-11T05:06:55.922Z,33.55
2023-03-11T05:07:59.796Z,34.55
2023-03-11T05:09:04.771Z,30.35
2023-03-11T05:10:10.343Z,33.70
2023-03-11T05:11:14.442Z,37.20
2023-03-11T05:12:18.956Z,37.22
2023-03-11T05:13:25.064Z,33.85
2023-03-11T05:14:28.028Z,34.33
2023-03-11T05:15:31.693Z,31.95
2023-03-11T05:16:36.846Z,33.40
2023-03-11T05:17:40.260Z,36.17
2023-03-11T05:18:42.987Z,34.03
2023-03-11T05:19:47.797Z,35.47
2023-03-11T05:20:57.906Z,38.17
2023-03-11T05:22:04.861Z,42.45
2023-03-11T05:23:07.000Z,39.72
2023-03-11T05:24:11.797Z,41.55
2023-03-11T05:25:13.953Z,40.20
2023-03-11T05:26:16.014Z,40.65
2023-03-11T05:27:20.100Z,40.10
2023-03-11T05:28:27.670Z,39.88
2023-03-11T05:29:33.643Z,37.88
2023-03-11T05:30:40.242Z,40.30
2023-03-11T05:31:59.106Z,37.88
2023-03-11T05:33:02.646Z,41.95
2023-03-11T05:34:04.794Z,42.70
2023-03-11T05:35:08.191Z,38.38
2023-03-11T05:36:10.910Z,39.15
2023-03-11T05:37:21.375Z,37.00
2023-03-11T05:38:24.926Z,42.17
2023-03-11T05:39:27.230Z,37.03
2023-03-11T05:40:29.713Z,38.22
2023-03-11T05:41:32.102Z,36.90
2023-03-11T05:42:35.174Z,33.17
2023-03-11T05:43:38.005Z,34.72
2023-03-11T05:44:42.464Z,30.25
2023-03-11T05:45:44.973Z,34.50
2023-03-11T05:46:47.115Z,35.25
2023-03-11T05:47:49.473Z,34.85
2023-03-11T05:48:52.917Z,32.28
2023-03-11T05:49:55.749Z,30.85
2023-03-11T05:50:59.773Z,32.83
2023-03-11T05:52:03.532Z,33.65
2023-03-11T05:53:07.044Z,30.30
2023-03-11T05:54:15.391Z,35.42
2023-03-11T05:55:23.859Z,33.53
2023-03-11T05:56:26.003Z,31.83
2023-03-11T05:57:29.898Z,31.40
2023-03-11T05:58:33.065Z,31.83
2023-03-11T05:59:35.695Z,33.20
2023-03-11T06:00:40.024Z,32.33
2023-03-11T06:01:43.221Z,30.45
2023-03-11T06:02:46.138Z,28.08
2023-03-11T06:03:51.456Z,32.88
2023-03-11T06:04:54.526Z,33.53
2023-03-11T06:05:56.686Z,32.17
2023-03-11T06:06:58.678Z,29.98
2023-03-11T06:08:04.398Z,25.95
2023-03-11T06:09:06.361Z,26.48
2023-03-11T06:10:09.807Z,29.08
2023-03-11T06:11:12.038Z,30.20
2023-03-11T06:12:14.914Z,27.15
2023-03-11T06:13:47.336Z,27.67
2023-03-11T06:14:49.753Z,28.17
2023-03-11T06:15:53.323Z,32.35
2023-03-11T06:16:56.505Z,28.15
2023-03-11T06:18:09.033Z,26.55
2023-03-11T06:19:15.053Z,28.85
2023-03-11T06:20:22.067Z,29.92
2023-03-11T06:21:26.843Z,33.10
2023-03-11T06:22:29.423Z,28.17
2023-03-11T06:23:33.065Z,28.40
2023-03-11T06:24:37.107Z,27.90
2023-03-11T06:25:41.076Z,27.30
2023-03-11T06:26:44.191Z,25.05
2023-03-11T06:27:53.475Z,24.73
2023-03-11T06:28:56.601Z,28.15
2023-03-11T06:29:58.461Z,25.17
2023-03-11T06:31:09.324Z,22.00
2023-03-11T06:32:11.445Z,26.65
2023-03-11T06:33:17.559Z,24.50
2023-03-11T06:34:19.667Z,25.73
2023-03-11T06:35:21.880Z,25.60
2023-03-11T06:36:24.052Z,27.17
2023-03-11T06:37:26.784Z,24.98
2023-03-11T06:38:32.568Z,27.10
2023-03-11T06:39:34.605Z,28.35
2023-03-11T06:40:38.455Z,23.35
2023-03-11T06:41:40.500Z,30.88
2023-03-11T06:42:48.390Z,24.08
2023-03-11T06:43:51.414Z,26.35
2023-03-11T06:45:00.152Z,27.55
2023-03-11T06:46:12.039Z,24.25
2023-03-11T06:47:16.233Z,24.55
2023-03-11T06:48:23.161Z,26.00
2023-03-11T06:49:25.372Z,23.02
2023-03-11T06:50:29.822Z,20.08
2023-03-11T06:51:35.259Z,26.20
2023-03-11T06:52:38.273Z,23.33
2023-03-11T06:53:44.654Z,22.23
2023-03-11T06:54:47.620Z,24.02
2023-03-11T06:56:21.864Z,22.92
2023-03-11T06:57:29.582Z,22.10
2023-03-11T06:58:35.882Z,33.50
2023-03-11T06:59:38.545Z,20.08
2023-03-11T07:00:42.749Z,21.50
2023-03-11T07:01:45.643Z,20.85
2023-03-11T07:02:47.846Z,25.50
2023-03-11T07:03:52.550Z,20.90
2023-03-11T07:04:56.633Z,21.27
2023-03-11T07:05:59.598Z,22.42
2023-03-11T07:07:02.901Z,24.60
2023-03-11T07:08:05.075Z,22.10
2023-03-11T07:09:08.437Z,20.02
2023-03-11T07:10:14.630Z,22.83
2023-03-11T07:11:25.576Z,19.00
2023-03-11T07:12:30.948Z,21.85
2023-03-11T07:13:33.261Z,19.65
2023-03-11T07:14:35.424Z,18.67
2023-03-11T07:15:38.872Z,20.45
2023-03-11T07:16:42.140Z,24.50
2023-03-11T07:17:51.504Z,22.60
2023-03-11T07:18:56.809Z,20.42
2023-03-11T07:19:58.993Z,22.92
2023-03-11T07:21:06.286Z,18.90
2023-03-11T07:22:08.290Z,21.00
2023-03-11T07:23:14.527Z,22.65
2023-03-11T07:24:16.865Z,20.90
2023-03-11T07:25:19.597Z,19.10
2023-03-11T07:26:22.596Z,19.73
2023-03-11T07:27:25.245Z,21.27
2023-03-11T07:28:28.599Z,24.08
2023-03-11T07:29:30.772Z,22.27
2023-03-11T07:30:35.413Z,21.75
2023-03-11T07:31:38.980Z,22.92
2023-03-11T07:32:42.151Z,20.30
2023-03-11T07:33:44.988Z,21.45
2023-03-11T07:34:46.916Z,21.27
2023-03-11T07:35:49.511Z,22.30
2023-03-11T07:36:52.011Z,20.55
2023-03-11T07:37:53.930Z,23.83
2023-03-11T07:39:04.202Z,20.83
2023-03-11T07:40:07.168Z,20.88
2023-03-11T07:41:14.065Z,19.40
2023-03-11T07:42:16.390Z,21.50
2023-03-11T07:43:18.692Z,21.90
2023-03-11T07:44:20.725Z,24.17
2023-03-11T07:45:23.896Z,21.13
2023-03-11T07:46:29.723Z,20.85
2023-03-11T07:47:31.735Z,18.70
2023-03-11T07:48:36.313Z,17.33
2023-03-11T07:49:38.319Z,23.48
2023-03-11T07:50:40.467Z,19.65
2023-03-11T07:51:44.191Z,18.02
2023-03-11T07:52:46.245Z,20.10
2023-03-11T07:53:50.468Z,19.45
2023-03-11T07:54:53.123Z,21.38
2023-03-11T07:55:59.660Z,17.90
2023-03-11T07:57:03.432Z,20.48
2023-03-11T07:58:06.595Z,23.63
2023-03-11T07:59:09.048Z,19.38
2023-03-11T08:00:12.786Z,19.65
2023-03-11T08:01:18.062Z,19.17
2023-03-11T08:02:20.460Z,19.70
2023-03-11T08:03:25.329Z,18.40
2023-03-11T08:04:28.064Z,19.80
2023-03-11T08:05:34.425Z,21.50
2023-03-11T08:06:38.251Z,20.08
2023-03-11T08:07:42.153Z,18.80
2023-03-11T08:08:45.604Z,18.90
2023-03-11T08:09:50.374Z,20.52
2023-03-11T08:10:53.449Z,19.95
2023-03-11T08:11:57.684Z,19.55
2023-03-11T08:12:59.964Z,20.92
2023-03-11T08:14:03.377Z,17.98
2023-03-11T08:15:05.838Z,22.25
2023-03-11T08:16:10.180Z,18.42
2023-03-11T08:17:13.241Z,17.67
2023-03-11T08:18:17.122Z,18.88
2023-03-11T08:19:19.487Z,18.52
2023-03-11T08:20:21.876Z,18.90
2023-03-11T08:21:32.552Z,20.67
2023-03-11T08:22:34.541Z,19.70
2023-03-11T08:23:36.631Z,18.23
2023-03-11T08:24:38.639Z,21.48
2023-03-11T08:25:45.716Z,16.48
2023-03-11T08:26:47.931Z,17.63
2023-03-11T08:27:49.828Z,16.10
2023-03-11T08:28:51.791Z,16.23
2023-03-11T08:29:56.262Z,16.08
2023-03-11T08:30:59.746Z,16.70
2023-03-11T08:32:03.742Z,16.38
2023-03-11T08:33:06.263Z,17.83
2023-03-11T08:34:10.805Z,15.32
2023-03-11T08:35:13.111Z,17.52
2023-03-11T08:36:18.052Z,18.50
2023-03-11T08:37:20.127Z,16.55
2023-03-11T08:38:22.179Z,17.17
2023-03-11T08:39:25.424Z,17.42
2023-03-11T08:40:28.116Z,16.60
2023-03-11T08:41:30.397Z,18.20
2023-03-11T08:42:33.141Z,16.23
2023-03-11T08:43:36.806Z,23.73
2023-03-11T08:44:39.784Z,19.27
2023-03-11T08:45:44.226Z,18.00
2023-03-11T08:46:46.342Z,18.33
2023-03-11T08:47:48.667Z,19.33
2023-03-11T08:48:50.669Z,17.30
2023-03-11T08:49:53.221Z,18.60
2023-03-11T08:50:55.658Z,17.08
2023-03-11T08:51:58.030Z,18.27
2023-03-11T08:53:03.540Z,19.23
2023-03-11T08:54:06.051Z,19.35
2023-03-11T08:55:09.182Z,20.02
2023-03-11T08:56:13.132Z,21.55
2023-03-11T08:57:15.048Z,18.02
2023-03-11T08:58:17.409Z,21.20
2023-03-11T08:59:19.431Z,17.48
2023-03-11T09:00:22.282Z,19.08
2023-03-11T09:01:24.555Z,19.25
2023-03-11T09:02:27.728Z,15.63
2023-03-11T09:03:36.476Z,18.85
2023-03-11T09:04:43.127Z,21.35
2023-03-11T09:05:45.691Z,18.85
2023-03-11T09:06:49.162Z,18.08
2023-03-11T09:07:51.224Z,19.13
2023-03-11T09:08:53.428Z,18.90
2023-03-11T09:09:55.642Z,20.95
2023-03-11T09:10:57.897Z,19.83
2023-03-11T09:12:00.114Z,15.10
2023-03-11T09:13:02.197Z,16.02
2023-03-11T09:14:06.365Z,16.35
2023-03-11T09:15:09.520Z,17.33
2023-03-11T09:16:17.441Z,15.32
2023-03-11T09:17:19.505Z,16.38
2023-03-11T09:18:21.965Z,20.13
2023-03-11T09:19:24.162Z,15.63
2023-03-11T09:20:26.308Z,15.98
2023-03-11T09:21:29.658Z,17.00
2023-03-11T09:22:31.844Z,16.80
2023-03-11T09:23:34.036Z,18.05
2023-03-11T09:24:36.434Z,17.33
2023-03-11T09:25:38.816Z,15.90
2023-03-11T09:26:41.603Z,19.15
2023-03-11T09:27:44.397Z,20.42
2023-03-11T09:28:49.398Z,20.05
2023-03-11T09:29:51.579Z,16.20
2023-03-11T09:30:54.838Z,15.63
2023-03-11T09:32:07.640Z,16.27
2023-03-11T09:33:13.534Z,16.45
2023-03-11T09:34:19.893Z,13.98
2023-03-11T09:35:24.145Z,16.35
2023-03-11T09:36:26.318Z,17.45
2023-03-11T09:37:30.344Z,18.35
2023-03-11T09:38:33.588Z,16.13
2023-03-11T09:39:36.450Z,16.65
2023-03-11T09:40:46.884Z,16.25
2023-03-11T09:41:58.724Z,17.00
2023-03-11T09:43:17.119Z,22.88
2023-03-11T09:44:48.838Z,20.15
2023-03-11T09:46:30.642Z,14.63
2023-03-11T09:47:57.933Z,18.50
2023-03-11T09:49:41.202Z,19.10
2023-03-11T09:50:51.103Z,19.23
2023-03-11T09:52:14.102Z,18.17
2023-03-11T09:53:42.416Z,16.92
2023-03-11T09:54:51.145Z,15.27
2023-03-11T09:56:06.255Z,16.60
2023-03-11T09:57:15.514Z,16.80
2023-03-11T09:58:45.487Z,17.55
2023-03-11T09:59:49.016Z,17.30
2023-03-11T10:00:54.067Z,19.98
2023-03-11T10:01:56.238Z,16.80
2023-03-11T10:02:58.626Z,20.10
2023-03-11T10:04:18.913Z,19.75
2023-03-11T10:05:23.567Z,19.08
2023-03-11T10:06:29.362Z,21.30
2023-03-11T10:07:40.837Z,19.02
2023-03-11T10:08:58.512Z,22.83
2023-03-11T10:10:01.035Z,19.48
2023-03-11T10:11:16.258Z,23.27
2023-03-11T10:12:36.548Z,20.80
2023-03-11T10:14:14.453Z,18.98
2023-03-11T10:15:31.818Z,20.08
2023-03-11T10:16:52.793Z,20.13
2023-03-11T10:18:05.430Z,21.25
2023-03-11T10:19:17.115Z,20.05
2023-03-11T10:20:52.306Z,20.13
2023-03-11T10:22:26.016Z,21.20
2023-03-11T10:23:58.678Z,23.20
2023-03-11T10:25:11.531Z,19.88
2023-03-11T10:26:23.377Z,18.67
2023-03-11T10:27:42.598Z,21.45
2023-03-11T10:28:54.550Z,22.33
2023-03-11T10:30:04.769Z,22.10
2023-03-11T10:31:20.288Z,19.67
2023-03-11T10:32:32.526Z,20.48
2023-03-11T10:34:00.486Z,20.45
2023-03-11T10:35:17.964Z,20.40
2023-03-11T10:36:26.614Z,26.08
2023-03-11T10:37:48.426Z,19.17
2023-03-11T10:38:53.093Z,21.25
2023-03-11T10:39:57.784Z,22.13
2023-03-11T10:41:31.426Z,19.55
2023-03-11T10:42:36.424Z,27.08
2023-03-11T10:43:45.351Z,27.88
2023-03-11T10:44:52.479Z,19.80
2023-03-11T10:45:55.082Z,23.00
2023-03-11T10:46:57.502Z,22.08
2023-03-11T10:48:00.132Z,19.63
2023-03-11T10:49:05.954Z,19.83
2023-03-11T10:50:17.497Z,22.60
2023-03-11T10:51:23.096Z,20.90
2023-03-11T10:52:25.306Z,21.48
2023-03-11T10:53:27.847Z,22.05
2023-03-11T10:54:55.762Z,19.95
2023-03-11T10:55:59.937Z,19.40
2023-03-11T10:57:27.571Z,21.55
2023-03-11T10:58:31.606Z,20.25
2023-03-11T10:59:48.320Z,20.42
2023-03-11T11:01:15.861Z,20.60
2023-03-11T11:02:30.451Z,19.42
2023-03-11T11:03:34.427Z,22.83
2023-03-11T11:04:40.823Z,22.83
2023-03-11T11:05:44.026Z,22.17
2023-03-11T11:06:46.696Z,24.67
2023-03-11T11:07:55.283Z,23.38
2023-03-11T11:09:17.161Z,23.40
2023-03-11T11:10:24.871Z,23.67
2023-03-11T11:11:28.271Z,24.67
2023-03-11T11:12:31.257Z,24.50
2023-03-11T11:13:34.827Z,24.50
2023-03-11T11:14:51.494Z,22.48
2023-03-11T11:16:00.042Z,24.20
2023-03-11T11:17:02.433Z,25.13
2023-03-11T11:18:06.449Z,23.70
2023-03-11T11:19:15.567Z,21.58
2023-03-11T11:20:24.340Z,33.67
2023-03-11T11:21:43.672Z,22.85
2023-03-11T11:22:52.981Z,24.02
2023-03-11T11:24:18.139Z,24.70
2023-03-11T11:25:33.862Z,21.98
2023-03-11T11:26:36.454Z,21.65
2023-03-11T11:27:38.450Z,21.08
2023-03-11T11:28:41.214Z,22.17
2023-03-11T11:29:46.013Z,24.27
2023-03-11T11:31:06.401Z,22.30
2023-03-11T11:32:15.325Z,20.55
2023-03-11T11:33:32.464Z,22.92
2023-03-11T11:34:35.674Z,22.88
2023-03-11T11:35:54.590Z,23.30
2023-03-11T11:37:03.415Z,21.30
2023-03-11T11:38:10.252Z,21.08
2023-03-11T11:39:19.470Z,22.23
2023-03-11T11:40:28.602Z,22.35
2023-03-11T11:41:36.862Z,21.98
2023-03-11T11:42:45.452Z,25.77
2023-03-11T11:43:55.703Z,23.77
2023-03-11T11:45:03.546Z,24.27
2023-03-11T11:46:20.999Z,24.13
2023-03-11T11:47:28.590Z,25.10
2023-03-11T11:48:46.275Z,24.75
2023-03-11T11:50:02.822Z,24.90
2023-03-11T11:51:21.520Z,22.60
2023-03-11T11:52:32.315Z,22.85
2023-03-11T11:53:53.315Z,23.77
2023-03-11T11:55:20.293Z,24.63
2023-03-11T11:56:28.414Z,23.88
2023-03-11T11:57:32.181Z,25.58
2023-03-11T11:58:35.255Z,24.50
2023-03-11T11:59:38.922Z,23.60
2023-03-11T12:01:13.569Z,23.80
2023-03-11T12:02:52.065Z,23.40
2023-03-11T12:04:16.365Z,23.92
2023-03-11T12:05:45.708Z,22.70
2023-03-11T12:07:13.256Z,21.05
2023-03-11T12:08:45.499Z,22.48
2023-03-11T12:10:12.997Z,19.88
2023-03-11T12:11:38.191Z,21.92
2023-03-11T12:13:02.515Z,22.13
2023-03-11T12:14:13.036Z,21.80
2023-03-11T12:15:26.448Z,22.27
2023-03-11T12:16:57.468Z,20.98
2023-03-11T12:18:06.322Z,21.55
2023-03-11T12:19:14.111Z,22.85
2023-03-11T12:20:33.757Z,20.15
2023-03-11T12:22:08.598Z,24.77
2023-03-11T12:23:37.069Z,19.75
2023-03-11T12:24:47.397Z,22.33
2023-03-11T12:26:25.302Z,19.42
2023-03-11T12:27:34.052Z,27.90
2023-03-11T12:28:42.554Z,19.73
2023-03-11T12:29:52.701Z,20.45
2023-03-11T12:31:01.105Z,20.83
2023-03-11T12:32:04.876Z,22.35
2023-03-11T12:33:39.124Z,18.15
2023-03-11T12:34:43.603Z,31.42
2023-03-11T12:35:57.624Z,20.20
2023-03-11T12:37:03.703Z,17.38
2023-03-11T12:38:18.590Z,18.13
2023-03-11T12:39:24.332Z,21.80
2023-03-11T12:40:46.349Z,18.58
2023-03-11T12:42:22.921Z,19.55
2023-03-11T12:43:48.026Z,19.23
2023-03-11T12:44:51.360Z,18.45
2023-03-11T12:45:56.079Z,22.77
2023-03-11T12:46:58.415Z,18.80
2023-03-11T12:48:28.072Z,19.05
2023-03-11T12:49:43.621Z,18.05
2023-03-11T12:50:47.559Z,18.20
2023-03-11T12:52:15.821Z,18.23
2023-03-11T12:53:18.696Z,18.77
2023-03-11T12:54:40.430Z,17.58
2023-03-11T12:56:03.162Z,17.55
2023-03-11T12:57:21.355Z,21.00
2023-03-11T12:58:38.145Z,20.80
2023-03-11T13:00:10.698Z,18.88
2023-03-11T13:01:43.715Z,19.52
2023-03-11T13:03:20.410Z,25.15
2023-03-11T13:04:51.823Z,19.10
2023-03-11T13:06:15.308Z,17.10
2023-03-11T13:07:40.344Z,18.95
2023-03-11T13:08:45.892Z,20.40
2023-03-11T13:10:12.795Z,20.20
2023-03-11T13:11:34.534Z,22.25
2023-03-11T13:12:51.909Z,23.88
2023-03-11T13:14:14.987Z,21.92
2023-03-11T13:15:20.526Z,14.48
2023-03-11T13:16:23.494Z,20.60
2023-03-11T13:17:35.644Z,20.75
2023-03-11T13:18:41.239Z,20.00
2023-03-11T13:19:53.341Z,21.23
2023-03-11T13:20:58.635Z,23.40
2023-03-11T13:22:06.039Z,19.90
2023-03-11T13:23:13.313Z,21.10
2023-03-11T13:24:32.764Z,19.83
2023-03-11T13:25:43.039Z,18.50
2023-03-11T13:26:53.850Z,16.42
2023-03-11T13:28:23.455Z,23.02
2023-03-11T13:29:53.097Z,18.75
2023-03-11T13:31:11.471Z,16.10
2023-03-11T13:32:31.931Z,19.88
2023-03-11T13:34:00.894Z,19.20
2023-03-11T13:35:34.690Z,19.77
2023-03-11T13:37:06.638Z,19.77
2023-03-11T13:38:36.330Z,19.00
2023-03-11T13:40:02.842Z,19.25
2023-03-11T13:41:15.306Z,19.05
2023-03-11T13:42:36.190Z,19.00
2023-03-11T13:43:45.042Z,16.10
2023-03-11T13:44:48.377Z,22.65
2023-03-11T13:46:24.807Z,18.80
2023-03-11T13:47:29.261Z,16.60
2023-03-11T13:48:40.571Z,22.25
2023-03-11T13:49:58.219Z,17.80
2023-03-11T13:51:23.264Z,19.95
2023-03-11T13:52:30.977Z,19.52
2023-03-11T13:53:43.906Z,18.55
2023-03-11T13:54:49.727Z,18.92
2023-03-11T13:55:52.244Z,19.70
2023-03-11T13:57:01.430Z,18.77
2023-03-11T13:58:22.790Z,21.08
2023-03-11T13:59:35.328Z,18.70
2023-03-11T14:00:47.007Z,19.50
2023-03-11T14:01:57.973Z,21.08
2023-03-11T14:03:03.966Z,22.92
2023-03-11T14:04:11.443Z,21.00
2023-03-11T14:05:17.629Z,20.73
2023-03-11T14:06:21.327Z,17.92
2023-03-11T14:07:32.055Z,20.08
2023-03-11T14:08:37.535Z,21.48
2023-03-11T14:09:39.973Z,22.38
2023-03-11T14:10:56.607Z,17.83
2023-03-11T14:12:06.818Z,23.70
2023-03-11T14:13:20.371Z,20.75
2023-03-11T14:14:33.220Z,22.23
2023-03-11T14:15:46.476Z,23.17
2023-03-11T14:16:49.259Z,23.20
2023-03-11T14:17:53.186Z,24.10
2023-03-11T14:19:11.434Z,27.15
2023-03-11T14:20:17.761Z,22.05
2023-03-11T14:21:22.342Z,20.30
2023-03-11T14:22:24.518Z,20.58
2023-03-11T14:23:49.942Z,18.52
2023-03-11T14:24:53.447Z,22.00
2023-03-11T14:26:02.118Z,19.77
2023-03-11T14:27:09.318Z,22.00
2023-03-11T14:28:20.506Z,20.38
2023-03-11T14:30:38.745Z,19.35